Time;durP1;ratioP1;P1;durP2;ratioP2;P2;SDS_P1;SDS_P2;PMS_P1;PMS_P2;Temp;Humidity;BMP_temperature;BMP_pressure;BME280_temperature;BME280_humidity;BME280_pressure;Samples;Min_cycle;Max_cycle;Signal;HPM_P1;HPM_P2
2023/03/25 00:00:58;;;;;;;7.30;1.95;;;8.70;99.90;;;;;;6246048;23;20168;-84
2023/03/25 00:03:25;;;;;;;1.50;0.55;;;8.70;99.90;;;;;;6245431;23;20156;-83
2023/03/25 00:05:55;;;;;;;4.43;1.23;;;8.70;99.90;;;;;;6244720;23;20209;-83
2023/03/25 00:08:23;;;;;;;1.40;0.50;;;8.70;99.90;;;;;;6244572;23;20227;-83
2023/03/25 00:10:53;;;;;;;0.60;0.47;;;8.70;99.90;;;;;;6245731;23;20208;-84
2023/03/25 00:13:20;;;;;;;2.50;0.70;;;8.70;99.90;;;;;;6247213;23;20145;-83
2023/03/25 00:15:52;;;;;;;4.78;1.50;;;8.70;99.90;;;;;;6244152;23;20153;-83
2023/03/25 00:18:19;;;;;;;1.02;0.68;;;8.60;99.90;;;;;;6246342;23;20521;-84
2023/03/25 00:20:48;;;;;;;2.55;1.00;;;8.70;99.90;;;;;;6242703;23;20649;-85
2023/03/25 00:23:14;;;;;;;1.75;0.65;;;8.70;99.90;;;;;;6243081;23;20145;-84
2023/03/25 00:25:40;;;;;;;4.68;1.23;;;8.80;99.90;;;;;;6239966;23;20154;-83
2023/03/25 00:28:07;;;;;;;2.47;0.70;;;8.80;99.90;;;;;;6239761;23;20159;-84
2023/03/25 00:30:32;;;;;;;4.93;2.13;;;8.80;99.90;;;;;;6246225;23;20176;-84
2023/03/25 00:33:00;;;;;;;1.90;0.80;;;8.80;99.90;;;;;;6245911;23;20157;-84
2023/03/25 00:35:27;;;;;;;3.40;0.77;;;8.70;99.90;;;;;;6235953;23;20227;-84
2023/03/25 00:37:59;;;;;;;1.30;0.63;;;8.70;99.90;;;;;;6235556;23;20156;-84
2023/03/25 00:40:33;;;;;;;4.18;1.10;;;8.70;99.90;;;;;;6246724;23;20664;-84
2023/03/25 00:42:59;;;;;;;2.50;0.90;;;8.70;99.90;;;;;;6244318;23;20590;-84
2023/03/25 00:45:25;;;;;;;7.72;1.23;;;8.70;99.90;;;;;;6244240;23;20148;-84
2023/03/25 00:47:50;;;;;;;3.53;0.70;;;8.70;99.90;;;;;;6246807;23;20148;-84
2023/03/25 00:50:16;;;;;;;4.47;0.97;;;8.80;99.90;;;;;;6244910;23;20811;-84
2023/03/25 00:52:41;;;;;;;2.63;1.07;;;8.70;99.90;;;;;;6240847;23;20157;-84
2023/03/25 00:55:07;;;;;;;2.10;0.83;;;8.70;99.90;;;;;;6239834;23;20155;-84
2023/03/25 00:57:33;;;;;;;6.87;1.00;;;8.60;99.90;;;;;;6240474;23;20166;-85
2023/03/25 00:59:59;;;;;;;4.63;0.90;;;8.60;99.90;;;;;;6244050;23;20419;-84
2023/03/25 01:02:25;;;;;;;5.00;0.80;;;8.50;99.90;;;;;;6239279;23;20436;-84
2023/03/25 01:04:50;;;;;;;5.03;1.10;;;8.50;99.90;;;;;;6242316;23;20239;-84
2023/03/25 01:07:18;;;;;;;1.73;0.87;;;8.50;99.90;;;;;;6243855;23;20163;-84
2023/03/25 01:09:46;;;;;;;2.80;0.77;;;8.50;99.90;;;;;;6244370;23;20421;-82
2023/03/25 01:12:12;;;;;;;7.97;2.25;;;8.40;99.90;;;;;;6240862;23;20157;-85
2023/03/25 01:14:38;;;;;;;6.28;1.30;;;8.40;99.90;;;;;;6238414;23;20156;-85
2023/03/25 01:17:03;;;;;;;5.73;0.80;;;8.30;99.90;;;;;;6240764;23;20608;-84
2023/03/25 01:19:29;;;;;;;2.30;1.50;;;8.30;99.90;;;;;;6241978;23;20274;-84
2023/03/25 01:21:54;;;;;;;3.27;1.17;;;8.30;99.90;;;;;;6240477;23;20149;-84
2023/03/25 01:24:20;;;;;;;6.80;1.87;;;8.30;99.90;;;;;;6241103;23;20156;-84
2023/03/25 01:26:45;;;;;;;8.33;0.87;;;8.40;99.90;;;;;;6238718;23;20667;-84
2023/03/25 01:29:17;;;;;;;2.93;0.83;;;8.40;99.90;;;;;;6231868;23;20226;-84
2023/03/25 01:31:43;;;;;;;2.90;0.90;;;8.60;99.90;;;;;;6239307;23;20133;-84
2023/03/25 01:34:09;;;;;;;3.60;0.90;;;8.70;99.90;;;;;;6241273;23;20251;-84
2023/03/25 01:36:38;;;;;;;6.20;1.05;;;8.70;99.90;;;;;;6237091;23;20448;-84
2023/03/25 01:39:05;;;;;;;2.00;0.70;;;8.70;99.90;;;;;;6238552;23;20184;-84
2023/03/25 01:41:32;;;;;;;3.63;1.13;;;8.70;99.90;;;;;;6245105;23;20247;-84
2023/03/25 01:44:29;;;;;;;2.20;0.90;;;8.70;99.90;;;;;;6246254;23;20145;-84
2023/03/25 01:47:00;;;;;;;3.80;0.80;;;8.70;99.90;;;;;;6243524;23;20171;-83
2023/03/25 01:49:32;;;;;;;6.65;1.30;;;8.90;99.90;;;;;;6246929;23;20159;-83
2023/03/25 01:52:15;;;;;;;7.93;1.58;;;8.90;99.90;;;;;;6244483;23;20617;-83
2023/03/25 01:54:42;;;;;;;7.13;1.45;;;8.90;99.90;;;;;;6242653;23;20170;-83
2023/03/25 01:57:11;;;;;;;2.05;0.80;;;8.90;99.90;;;;;;6247202;23;20148;-83
2023/03/25 01:59:38;;;;;;;7.20;0.80;;;8.90;99.90;;;;;;6236182;23;20180;-82
2023/03/25 02:02:07;;;;;;;6.07;1.30;;;8.90;99.90;;;;;;6236118;23;20159;-83
2023/03/25 02:05:18;;;;;;;2.50;0.82;;;8.90;99.90;;;;;;6232911;23;20148;-82
2023/03/25 02:07:47;;;;;;;1.98;0.80;;;8.90;99.90;;;;;;6170449;23;20242;-82
2023/03/25 02:10:14;;;;;;;2.78;0.70;;;8.90;99.90;;;;;;6223892;23;20238;-82
2023/03/25 02:12:40;;;;;;;1.45;0.70;;;9.00;99.90;;;;;;6237018;23;20147;-83
2023/03/25 02:15:09;;;;;;;6.50;1.52;;;8.90;99.90;;;;;;6249623;23;20194;-82
2023/03/25 02:17:56;;;;;;;3.47;0.75;;;8.80;99.90;;;;;;6247086;23;20129;-82
2023/03/25 02:20:41;;;;;;;4.93;0.93;;;8.60;99.90;;;;;;6243979;23;20180;-82
2023/03/25 02:23:41;;;;;;;0.63;0.63;;;8.30;99.90;;;;;;6240621;23;20148;-82
2023/03/25 02:26:44;;;;;;;0.80;0.40;;;7.80;99.90;;;;;;6239856;23;20148;-83
2023/03/25 02:29:36;;;;;;;0.88;0.47;;;7.70;99.90;;;;;;6240443;23;20157;-83
2023/03/25 02:32:32;;;;;;;0.77;0.40;;;7.60;99.90;;;;;;6239113;23;20153;-82
2023/03/25 02:35:28;;;;;;;2.95;0.50;;;7.40;99.90;;;;;;6242166;23;20232;-82
2023/03/25 02:38:35;;;;;;;0.70;0.55;;;7.30;99.90;;;;;;6240792;23;20556;-82
2023/03/25 02:41:19;;;;;;;1.35;0.82;;;7.20;99.90;;;;;;6244458;23;20176;-81
2023/03/25 02:44:00;;;;;;;1.30;0.55;;;7.10;99.90;;;;;;6239731;23;20149;-83
2023/03/25 02:46:28;;;;;;;0.40;0.30;;;7.00;99.90;;;;;;6242287;23;20141;-82
2023/03/25 02:49:03;;;;;;;0.95;0.50;;;7.00;99.90;;;;;;6248528;23;20155;-82
2023/03/25 02:51:32;;;;;;;3.75;0.80;;;6.90;99.90;;;;;;6246102;23;20175;-83
2023/03/25 02:54:03;;;;;;;0.60;0.40;;;6.90;99.90;;;;;;6247467;23;20482;-82
2023/03/25 02:56:31;;;;;;;0.68;0.45;;;6.80;99.90;;;;;;6245404;23;20168;-82
2023/03/25 02:58:58;;;;;;;2.63;0.65;;;6.80;99.90;;;;;;6247105;23;20173;-82
2023/03/25 03:01:25;;;;;;;3.15;1.08;;;6.80;99.90;;;;;;6239830;23;20172;-82
2023/03/25 03:03:55;;;;;;;3.20;0.70;;;6.80;99.90;;;;;;6238236;23;20153;-82
2023/03/25 03:06:23;;;;;;;1.60;0.57;;;6.80;99.90;;;;;;6245168;23;20160;-82
2023/03/25 03:08:49;;;;;;;3.80;0.63;;;6.70;99.90;;;;;;6247558;23;20183;-82
2023/03/25 03:11:35;;;;;;;0.93;0.60;;;6.70;99.90;;;;;;6246701;23;20164;-84
2023/03/25 03:14:33;;;;;;;1.15;0.50;;;6.80;99.90;;;;;;6247060;23;20141;-82
2023/03/25 03:17:12;;;;;;;0.80;0.47;;;6.70;99.90;;;;;;6245630;23;20231;-82
2023/03/25 03:19:40;;;;;;;0.77;0.45;;;6.70;99.90;;;;;;6243052;23;20184;-84
2023/03/25 03:22:24;;;;;;;1.70;0.70;;;6.70;99.90;;;;;;6245368;23;20152;-84
2023/03/25 03:24:54;;;;;;;1.60;0.50;;;6.60;99.90;;;;;;6242801;23;20145;-84
2023/03/25 03:27:37;;;;;;;2.97;0.55;;;6.60;99.90;;;;;;6244013;23;20144;-85
2023/03/25 03:30:15;;;;;;;0.70;0.40;;;6.60;99.90;;;;;;6246650;23;20195;-84
2023/03/25 03:33:08;;;;;;;0.70;0.50;;;6.70;99.90;;;;;;6245410;23;20206;-84
2023/03/25 03:35:39;;;;;;;4.78;0.40;;;6.70;99.90;;;;;;6245910;23;20156;-84
2023/03/25 03:38:12;;;;;;;2.67;0.55;;;6.70;99.90;;;;;;6257809;23;20140;-85
2023/03/25 03:40:41;;;;;;;1.70;0.60;;;6.80;99.90;;;;;;6251787;23;20256;-85
2023/03/25 03:43:15;;;;;;;4.78;1.50;;;6.80;99.90;;;;;;6248475;23;20160;-84
2023/03/25 03:45:47;;;;;;;1.20;0.50;;;6.90;99.90;;;;;;6244988;23;20448;-85
2023/03/25 03:48:41;;;;;;;0.40;0.40;;;6.90;99.90;;;;;;6242548;23;20145;-84
2023/03/25 03:51:20;;;;;;;2.45;0.40;;;6.90;99.90;;;;;;6210394;23;20612;-84
2023/03/25 03:54:22;;;;;;;1.52;0.43;;;6.90;99.90;;;;;;6244520;23;20199;-85
2023/03/25 03:56:56;;;;;;;2.15;0.93;;;6.90;99.90;;;;;;6208877;23;20175;-84
2023/03/25 03:59:36;;;;;;;0.70;0.57;;;6.90;99.90;;;;;;6240949;22;20617;-82
2023/03/25 04:02:06;;;;;;;0.60;0.40;;;6.90;99.90;;;;;;6240376;23;20137;-84
2023/03/25 04:04:33;;;;;;;1.98;0.60;;;6.90;99.90;;;;;;6241433;23;20125;-84
2023/03/25 04:07:15;;;;;;;2.40;0.80;;;7.10;99.90;;;;;;6239607;23;20156;-84
2023/03/25 04:09:54;;;;;;;1.38;0.80;;;7.10;99.90;;;;;;6238420;23;20270;-84
2023/03/25 04:12:26;;;;;;;1.98;0.77;;;7.10;99.90;;;;;;6244924;23;20216;-81
2023/03/25 04:14:55;;;;;;;3.08;0.77;;;7.10;99.90;;;;;;6237612;23;20572;-82
2023/03/25 04:17:23;;;;;;;5.07;1.10;;;7.20;99.90;;;;;;6239526;23;20544;-82
2023/03/25 04:19:52;;;;;;;0.40;0.38;;;7.20;99.90;;;;;;6237477;23;20192;-82
2023/03/25 04:22:18;;;;;;;2.35;1.23;;;7.10;99.90;;;;;;6237377;23;20172;-84
2023/03/25 04:24:44;;;;;;;4.38;1.00;;;7.00;99.90;;;;;;6238231;23;20232;-82
2023/03/25 04:27:12;;;;;;;7.17;1.60;;;7.00;99.90;;;;;;6240068;23;20163;-82
2023/03/25 04:29:39;;;;;;;2.13;1.15;;;7.00;99.90;;;;;;6237332;23;20207;-82
2023/03/25 04:32:04;;;;;;;2.42;0.65;;;7.00;99.90;;;;;;6240007;23;20145;-84
2023/03/25 04:34:30;;;;;;;3.73;0.83;;;7.10;99.90;;;;;;6233966;23;20229;-82
2023/03/25 04:36:56;;;;;;;3.10;0.60;;;7.20;99.90;;;;;;6233725;23;20163;-81
2023/03/25 04:39:21;;;;;;;4.40;0.80;;;7.20;99.90;;;;;;6235660;23;20253;-81
2023/03/25 04:41:52;;;;;;;2.03;0.83;;;7.30;99.90;;;;;;6244375;23;20167;-81
2023/03/25 04:44:20;;;;;;;12.02;1.25;;;7.40;99.90;;;;;;6239257;23;20224;-84
2023/03/25 04:46:46;;;;;;;5.25;1.30;;;7.40;99.90;;;;;;6243596;23;20551;-84
2023/03/25 04:49:20;;;;;;;1.10;0.80;;;7.40;99.90;;;;;;6238457;23;20148;-84
2023/03/25 04:51:50;;;;;;;3.33;1.45;;;7.40;99.90;;;;;;6238909;23;20417;-84
2023/03/25 04:54:16;;;;;;;3.58;0.90;;;7.40;99.90;;;;;;6235839;22;20156;-84
2023/03/25 04:56:41;;;;;;;2.40;1.07;;;7.30;99.90;;;;;;6237655;23;20148;-84
2023/03/25 04:59:08;;;;;;;1.90;0.80;;;7.30;99.90;;;;;;6239813;23;20490;-82
2023/03/25 05:01:36;;;;;;;0.50;0.50;;;7.30;99.90;;;;;;6237049;23;20165;-85
2023/03/25 05:04:04;;;;;;;2.15;0.50;;;7.40;99.90;;;;;;6235889;23;20175;-85
2023/03/25 05:06:41;;;;;;;2.58;0.68;;;7.50;99.90;;;;;;6232685;23;20253;-84
2023/03/25 05:09:14;;;;;;;1.20;0.70;;;7.60;99.90;;;;;;6230799;23;20535;-83
2023/03/25 05:11:40;;;;;;;2.88;0.50;;;7.60;99.90;;;;;;6232372;23;20227;-84
2023/03/25 05:14:09;;;;;;;5.45;1.15;;;7.50;99.90;;;;;;6235244;23;20160;-84
2023/03/25 05:16:35;;;;;;;7.40;0.80;;;7.50;99.90;;;;;;6233176;23;20175;-84
2023/03/25 05:19:02;;;;;;;8.40;1.20;;;7.50;99.90;;;;;;6240115;23;20169;-82
2023/03/25 05:21:30;;;;;;;1.50;0.65;;;7.50;99.90;;;;;;6240667;23;20391;-82
2023/03/25 05:23:57;;;;;;;3.22;0.65;;;7.50;99.90;;;;;;6243344;23;20141;-84
2023/03/25 05:26:23;;;;;;;3.75;0.98;;;7.50;99.90;;;;;;6239772;23;20176;-83
2023/03/25 05:28:50;;;;;;;3.28;0.88;;;7.50;99.90;;;;;;6247101;23;20176;-84
2023/03/25 05:31:16;;;;;;;3.92;0.95;;;7.50;99.90;;;;;;6235723;23;20212;-83
2023/03/25 05:33:42;;;;;;;2.67;1.10;;;7.50;99.90;;;;;;6245101;23;20164;-83
2023/03/25 05:36:12;;;;;;;1.97;0.50;;;7.50;99.90;;;;;;6240524;23;20164;-83
2023/03/25 05:38:40;;;;;;;8.57;1.40;;;7.50;99.90;;;;;;6239974;23;20172;-84
2023/03/25 05:41:09;;;;;;;2.53;0.70;;;7.50;99.90;;;;;;6236386;23;20267;-84
2023/03/25 05:43:36;;;;;;;6.85;1.67;;;7.60;99.90;;;;;;6234289;23;20149;-84
2023/03/25 05:46:03;;;;;;;4.78;0.82;;;7.60;99.90;;;;;;6240330;23;20149;-84
2023/03/25 05:48:31;;;;;;;3.67;1.17;;;7.60;99.90;;;;;;6241298;23;20149;-84
2023/03/25 05:50:57;;;;;;;3.33;1.30;;;7.70;99.90;;;;;;6241090;23;20176;-84
2023/03/25 05:53:23;;;;;;;1.02;0.88;;;7.70;99.90;;;;;;6244534;23;20160;-84
2023/03/25 05:55:50;;;;;;;4.00;1.00;;;7.90;99.90;;;;;;6246008;23;20148;-84
2023/03/25 05:58:16;;;;;;;5.50;1.20;;;7.90;99.90;;;;;;6239863;23;20159;-84
2023/03/25 06:00:42;;;;;;;2.40;2.17;;;7.90;99.90;;;;;;6242632;23;20281;-84
2023/03/25 06:03:09;;;;;;;4.82;1.20;;;8.00;99.90;;;;;;6245098;23;20498;-84
2023/03/25 06:05:38;;;;;;;3.25;1.20;;;8.10;99.90;;;;;;6240676;23;20471;-84
2023/03/25 06:08:03;;;;;;;4.95;1.83;;;8.20;99.90;;;;;;6244702;23;20156;-84
2023/03/25 06:10:29;;;;;;;4.17;1.27;;;8.30;99.90;;;;;;6245356;23;20168;-84
2023/03/25 06:12:54;;;;;;;3.70;1.03;;;8.40;99.90;;;;;;6247172;23;20174;-84
2023/03/25 06:15:32;;;;;;;5.40;1.20;;;8.50;99.90;;;;;;6239036;23;20156;-84
2023/03/25 06:17:58;;;;;;;2.15;0.88;;;8.60;99.90;;;;;;6245833;23;20155;-84
2023/03/25 06:20:23;;;;;;;10.80;1.20;;;8.70;99.90;;;;;;6245546;23;20195;-84
2023/03/25 06:22:49;;;;;;;2.57;0.70;;;8.80;99.90;;;;;;6234524;23;20785;-84
2023/03/25 06:25:17;;;;;;;4.90;1.50;;;8.90;99.90;;;;;;6239677;23;20956;-83
2023/03/25 06:27:44;;;;;;;4.03;0.85;;;9.10;99.90;;;;;;6238424;23;20155;-83
2023/03/25 06:30:15;;;;;;;5.07;1.00;;;9.10;99.90;;;;;;6234914;23;20979;-84
2023/03/25 06:32:41;;;;;;;4.53;1.25;;;9.20;99.90;;;;;;6232559;23;20176;-83
2023/03/25 06:35:09;;;;;;;3.10;0.93;;;9.30;99.90;;;;;;6236528;23;20643;-83
2023/03/25 06:37:35;;;;;;;4.45;1.52;;;9.20;99.90;;;;;;6239591;23;20602;-84
2023/03/25 06:40:01;;;;;;;6.93;1.35;;;9.30;99.90;;;;;;6236456;23;20188;-83
2023/03/25 06:42:27;;;;;;;3.73;0.70;;;9.40;99.90;;;;;;6242290;23;20551;-84
2023/03/25 06:44:53;;;;;;;4.90;1.42;;;9.60;99.90;;;;;;6233718;23;21003;-83
2023/03/25 06:47:19;;;;;;;5.18;1.42;;;9.40;99.90;;;;;;6237565;23;20148;-83
2023/03/25 06:49:44;;;;;;;4.87;1.33;;;9.20;99.90;;;;;;6235554;23;20172;-84
2023/03/25 06:52:11;;;;;;;4.83;1.17;;;9.10;99.90;;;;;;6236681;23;20156;-84
2023/03/25 06:54:36;;;;;;;5.95;1.50;;;9.10;99.90;;;;;;6238711;23;20156;-84
2023/03/25 06:57:02;;;;;;;7.83;1.23;;;9.20;99.90;;;;;;6238877;23;20152;-83
2023/03/25 06:59:28;;;;;;;3.23;1.03;;;9.40;99.90;;;;;;6237024;23;20935;-82
2023/03/25 07:01:53;;;;;;;5.63;1.30;;;9.60;99.90;;;;;;6241184;23;20145;-85
2023/03/25 07:04:19;;;;;;;11.60;1.60;;;9.70;99.90;;;;;;6248236;23;20155;-84
2023/03/25 07:06:45;;;;;;;3.43;1.20;;;;;;;;;;6248164;23;20144;-85
2023/03/25 07:09:10;;;;;;;7.10;1.40;;;9.60;99.90;;;;;;6244167;23;20157;-82
2023/03/25 07:11:36;;;;;;;7.63;1.50;;;9.50;99.90;;;;;;6243100;23;20948;-85
2023/03/25 07:14:02;;;;;;;3.63;1.00;;;9.50;99.90;;;;;;6245829;23;20144;-84
2023/03/25 07:16:27;;;;;;;13.70;2.47;;;9.40;99.90;;;;;;6246936;23;20172;-81
2023/03/25 07:18:57;;;;;;;4.43;1.00;;;9.60;99.90;;;;;;6252212;23;20523;-82
2023/03/25 07:21:23;;;;;;;5.28;1.45;;;9.60;99.90;;;;;;6249638;23;20176;-86
2023/03/25 07:23:49;;;;;;;1.73;0.80;;;9.50;99.90;;;;;;6245592;23;20156;-85
2023/03/25 07:26:15;;;;;;;11.90;1.73;;;9.50;99.90;;;;;;6243956;23;20371;-84
2023/03/25 07:28:41;;;;;;;3.40;0.87;;;9.30;99.90;;;;;;6243790;23;20371;-84
2023/03/25 07:31:11;;;;;;;8.02;1.70;;;9.50;99.90;;;;;;6246673;23;20471;-85
2023/03/25 07:33:37;;;;;;;1.92;0.90;;;9.80;99.90;;;;;;6243853;23;21120;-83
2023/03/25 07:36:04;;;;;;;4.63;1.00;;;9.70;99.90;;;;;;6244166;23;20221;-84
2023/03/25 07:38:30;;;;;;;3.20;1.10;;;9.70;99.90;;;;;;6240656;23;20639;-82
2023/03/25 07:40:56;;;;;;;8.60;1.67;;;9.60;99.90;;;;;;6241469;23;20658;-83
2023/03/25 07:43:21;;;;;;;3.23;0.80;;;9.70;99.90;;;;;;6244610;23;20244;-84
2023/03/25 07:45:47;;;;;;;2.90;0.77;;;9.80;99.90;;;;;;6243221;23;20591;-83
2023/03/25 07:48:13;;;;;;;9.70;0.80;;;10.00;99.90;;;;;;6242537;23;20148;-83
2023/03/25 07:50:39;;;;;;;6.45;1.08;;;10.40;99.90;;;;;;6244501;23;20160;-83
2023/03/25 07:53:05;;;;;;;6.75;1.67;;;10.50;99.90;;;;;;6246229;23;20152;-84
2023/03/25 07:55:31;;;;;;;8.90;1.83;;;10.70;99.90;;;;;;6237811;23;20137;-84
2023/03/25 07:57:59;;;;;;;7.00;1.50;;;10.70;99.90;;;;;;6243990;23;20164;-83
2023/03/25 08:00:25;;;;;;;2.53;1.05;;;;;;;;;;6242328;23;20246;-83
2023/03/25 08:02:51;;;;;;;2.87;1.33;;;10.60;99.90;;;;;;6244665;23;20149;-84
2023/03/25 08:05:20;;;;;;;3.53;1.47;;;11.00;99.90;;;;;;6237260;23;20390;-85
2023/03/25 08:07:47;;;;;;;9.20;1.42;;;11.60;99.90;;;;;;6238187;23;20664;-83
2023/03/25 08:10:15;;;;;;;5.93;0.90;;;11.60;99.90;;;;;;6238911;23;20241;-84
2023/03/25 08:12:42;;;;;;;7.25;1.42;;;11.40;99.90;;;;;;6238088;23;20164;-84
2023/03/25 08:15:08;;;;;;;6.00;0.90;;;11.10;99.90;;;;;;6238272;23;20155;-83
2023/03/25 08:17:34;;;;;;;2.25;0.85;;;11.00;99.90;;;;;;6243124;23;20148;-83
2023/03/25 08:19:59;;;;;;;1.03;0.70;;;11.20;99.90;;;;;;6252005;22;20184;-87
2023/03/25 08:22:28;;;;;;;3.53;1.00;;;11.50;99.90;;;;;;6242905;23;20228;-84
2023/03/25 08:24:54;;;;;;;7.25;1.25;;;12.00;99.90;;;;;;6238782;23;20402;-84
2023/03/25 08:27:19;;;;;;;3.10;1.00;;;13.10;99.90;;;;;;6237029;23;20168;-84
2023/03/25 08:29:56;;;;;;;4.40;1.13;;;14.80;99.90;;;;;;6236652;23;20226;-84
2023/03/25 08:32:26;;;;;;;5.55;1.27;;;14.70;99.90;;;;;;6239063;23;20175;-83
2023/03/25 08:34:52;;;;;;;3.60;0.70;;;13.00;99.90;;;;;;6237449;23;20137;-83
2023/03/25 08:37:18;;;;;;;2.55;1.10;;;13.70;99.90;;;;;;6231741;23;20415;-84
2023/03/25 08:39:44;;;;;;;4.67;1.30;;;13.40;99.90;;;;;;6230546;23;20199;-84
2023/03/25 08:42:12;;;;;;;4.07;0.70;;;13.10;99.90;;;;;;6228478;23;20156;-84
2023/03/25 08:44:38;;;;;;;9.10;2.00;;;12.40;99.90;;;;;;6230642;23;20371;-82
2023/03/25 08:47:04;;;;;;;7.95;1.10;;;12.00;99.90;;;;;;6237400;23;20168;-84
2023/03/25 08:49:30;;;;;;;2.72;1.05;;;11.90;99.90;;;;;;6233449;23;20210;-84
2023/03/25 08:51:59;;;;;;;1.37;0.67;;;11.30;99.90;;;;;;6236109;23;20157;-84
2023/03/25 08:54:24;;;;;;;3.13;1.35;;;11.00;99.90;;;;;;6236338;23;20555;-84
2023/03/25 08:56:50;;;;;;;2.45;0.85;;;10.10;99.90;;;;;;6234024;23;20398;-84
2023/03/25 08:59:16;;;;;;;6.67;1.60;;;10.50;99.90;;;;;;6249411;23;20248;-84
2023/03/25 09:01:43;;;;;;;3.75;0.95;;;10.40;99.90;;;;;;6241302;23;20524;-84
2023/03/25 09:04:09;;;;;;;7.68;0.90;;;9.90;99.90;;;;;;6245194;23;20231;-83
2023/03/25 09:06:36;;;;;;;3.95;0.95;;;9.80;99.90;;;;;;6242651;23;20641;-83
2023/03/25 09:09:04;;;;;;;1.80;0.50;;;9.70;99.90;;;;;;6240519;23;20235;-83
2023/03/25 09:11:32;;;;;;;0.90;0.50;;;9.40;99.90;;;;;;6240870;23;20184;-84
2023/03/25 09:13:58;;;;;;;1.33;0.60;;;9.90;99.90;;;;;;6242797;23;21127;-84
2023/03/25 09:16:23;;;;;;;0.93;0.40;;;10.40;99.90;;;;;;6240201;23;20153;-84
2023/03/25 09:18:49;;;;;;;0.53;0.50;;;10.60;99.90;;;;;;6240525;23;20528;-85
2023/03/25 09:21:14;;;;;;;1.90;0.40;;;11.60;99.90;;;;;;6238209;23;20180;-85
2023/03/25 09:23:40;;;;;;;0.50;0.30;;;11.80;99.90;;;;;;6242430;23;20191;-83
2023/03/25 09:26:06;;;;;;;0.90;0.50;;;11.50;99.90;;;;;;6242133;23;21006;-85
2023/03/25 09:28:31;;;;;;;1.00;0.60;;;11.20;99.90;;;;;;6243544;23;20395;-85
2023/03/25 09:30:57;;;;;;;0.90;0.40;;;11.10;99.90;;;;;;6243366;23;20223;-84
2023/03/25 09:33:23;;;;;;;1.83;0.43;;;11.10;99.90;;;;;;6250593;22;20199;-85
2023/03/25 09:35:49;;;;;;;3.70;0.50;;;11.10;99.90;;;;;;6245275;23;20175;-83
2023/03/25 09:38:15;;;;;;;1.08;0.45;;;10.90;99.90;;;;;;6241680;23;20153;-85
2023/03/25 09:40:42;;;;;;;2.20;0.50;;;12.30;99.90;;;;;;6242646;23;20175;-86
2023/03/25 09:43:35;;;;;;;0.40;0.20;;;12.60;99.90;;;;;;6244493;23;20179;-85
2023/03/25 09:46:02;;;;;;;1.77;0.73;;;12.20;99.90;;;;;;6243073;23;20175;-84
2023/03/25 09:48:41;;;;;;;0.80;0.50;;;12.60;99.90;;;;;;6242556;23;20175;-84
2023/03/25 09:51:29;;;;;;;2.95;0.63;;;12.20;99.90;;;;;;6240400;23;20248;-84
2023/03/25 09:54:01;;;;;;;0.70;0.45;;;11.70;99.90;;;;;;6238909;22;20148;-85
2023/03/25 09:56:31;;;;;;;1.58;0.70;;;11.30;99.90;;;;;;6244313;23;20148;-84
2023/03/25 09:59:05;;;;;;;1.75;0.70;;;11.20;99.90;;;;;;6245701;23;20183;-85
2023/03/25 10:01:47;;;;;;;1.00;0.63;;;10.70;99.90;;;;;;6245137;23;20156;-84
2023/03/25 10:04:31;;;;;;;0.50;0.30;;;10.10;99.90;;;;;;6247751;23;20161;-85
2023/03/25 10:07:14;;;;;;;0.45;0.28;;;10.30;99.90;;;;;;6242843;23;20156;-85
2023/03/25 10:09:57;;;;;;;0.70;0.40;;;11.10;99.90;;;;;;6237120;23;20191;-84
2023/03/25 10:12:28;;;;;;;0.55;0.38;;;10.70;99.90;;;;;;6243102;23;20156;-84
2023/03/25 10:15:28;;;;;;;0.80;0.50;;;11.20;99.90;;;;;;6241262;23;20180;-85
2023/03/25 10:18:17;;;;;;;0.55;0.40;;;11.70;99.90;;;;;;6244041;23;20140;-85
2023/03/25 10:21:02;;;;;;;3.97;0.60;;;11.80;99.90;;;;;;6245409;23;20187;-84
2023/03/25 10:23:40;;;;;;;2.45;0.60;;;11.10;99.90;;;;;;6243023;23;20136;-85
2023/03/25 10:26:31;;;;;;;0.90;0.68;;;10.60;99.90;;;;;;6242962;23;20128;-84
2023/03/25 10:29:02;;;;;;;2.05;0.98;;;10.40;99.90;;;;;;6256100;23;20133;-85
2023/03/25 10:31:33;;;;;;;0.70;0.45;;;11.10;99.90;;;;;;6239397;23;20172;-84
2023/03/25 10:34:04;;;;;;;1.40;0.40;;;11.60;99.90;;;;;;6247204;23;20182;-84
2023/03/25 10:36:37;;;;;;;0.50;0.30;;;12.00;99.90;;;;;;6243631;23;20144;-85
2023/03/25 10:39:13;;;;;;;1.40;0.60;;;12.60;99.90;;;;;;6249297;23;20161;-85
2023/03/25 10:41:42;;;;;;;5.85;0.40;;;12.60;99.90;;;;;;6243316;23;20172;-85
2023/03/25 10:44:10;;;;;;;1.27;0.43;;;12.10;99.90;;;;;;6252358;22;20156;-85
2023/03/25 10:47:21;;;;;;;1.70;0.70;;;12.50;99.90;;;;;;6245500;23;20172;-84
2023/03/25 10:49:48;;;;;;;0.95;0.47;;;12.40;99.90;;;;;;6241156;23;20224;-84
2023/03/25 10:52:15;;;;;;;0.90;0.60;;;12.30;99.90;;;;;;6236280;23;20215;-85
2023/03/25 10:54:44;;;;;;;0.85;0.55;;;12.30;99.90;;;;;;6237467;23;20155;-84
2023/03/25 10:57:17;;;;;;;0.73;0.60;;;12.60;99.90;;;;;;6241017;23;20632;-84
2023/03/25 11:00:03;;;;;;;1.17;0.45;;;12.60;99.90;;;;;;6239639;23;20215;-84
2023/03/25 11:02:31;;;;;;;3.92;0.38;;;12.20;99.90;;;;;;6241098;23;20148;-84
2023/03/25 11:05:00;;;;;;;6.85;1.00;;;12.10;99.90;;;;;;6241096;23;20145;-84
2023/03/25 11:07:33;;;;;;;1.95;0.65;;;11.70;99.90;;;;;;6240845;23;20708;-84
2023/03/25 11:10:22;;;;;;;3.40;0.70;;;11.50;99.90;;;;;;6243098;23;20240;-85
2023/03/25 11:12:50;;;;;;;3.95;0.95;;;12.20;99.90;;;;;;6242113;23;20149;-83
2023/03/25 11:15:31;;;;;;;1.08;0.70;;;12.00;99.90;;;;;;6242523;23;20148;-85
2023/03/25 11:18:12;;;;;;;3.92;0.95;;;12.40;99.90;;;;;;6243284;23;20206;-84
2023/03/25 11:20:44;;;;;;;4.22;0.57;;;12.40;99.90;;;;;;6241908;23;20231;-85
2023/03/25 11:23:29;;;;;;;2.05;1.10;;;12.40;99.90;;;;;;6242156;23;20237;-85
2023/03/25 11:26:20;;;;;;;1.63;0.88;;;12.50;99.90;;;;;;6245299;23;20145;-84
2023/03/25 11:28:53;;;;;;;2.03;0.77;;;12.50;99.90;;;;;;6245409;23;20239;-85
2023/03/25 11:31:24;;;;;;;1.20;0.80;;;12.70;99.90;;;;;;6236952;23;20235;-85
2023/03/25 11:34:03;;;;;;;3.13;1.13;;;13.10;99.90;;;;;;6239997;23;20180;-85
2023/03/25 11:36:46;;;;;;;4.45;1.25;;;13.10;99.90;;;;;;6245880;23;20163;-85
2023/03/25 11:39:23;;;;;;;0.88;0.60;;;12.60;99.90;;;;;;6245303;23;20184;-85
2023/03/25 11:41:50;;;;;;;2.30;0.70;;;12.10;99.90;;;;;;6245589;23;20153;-84
2023/03/25 11:44:31;;;;;;;2.00;0.75;;;12.00;99.90;;;;;;6247343;23;20140;-85
2023/03/25 11:47:04;;;;;;;5.63;0.70;;;11.90;99.90;;;;;;6247547;23;20140;-86
2023/03/25 11:49:36;;;;;;;0.68;0.47;;;11.90;99.90;;;;;;6253126;23;20137;-84
2023/03/25 11:52:06;;;;;;;3.20;0.70;;;12.00;99.90;;;;;;6244356;23;20152;-85
2023/03/25 11:54:34;;;;;;;4.22;1.25;;;12.40;99.90;;;;;;6240607;23;20149;-84
2023/03/25 11:57:03;;;;;;;2.45;0.77;;;12.70;99.90;;;;;;6257041;22;20141;-85
2023/03/25 11:59:38;;;;;;;10.80;0.93;;;11.90;99.90;;;;;;6246665;23;20168;-84
2023/03/25 12:02:35;;;;;;;0.90;0.75;;;11.90;99.90;;;;;;6244521;23;20396;-84
2023/03/25 12:05:12;;;;;;;1.77;1.02;;;11.90;99.90;;;;;;6244959;23;20171;-83
2023/03/25 12:07:46;;;;;;;5.38;1.02;;;12.00;99.90;;;;;;6243785;23;20708;-84
2023/03/25 12:10:31;;;;;;;2.95;0.60;;;12.20;99.90;;;;;;6241918;23;20180;-84
2023/03/25 12:13:11;;;;;;;1.30;0.50;;;12.40;99.90;;;;;;6242700;23;20212;-84
2023/03/25 12:15:52;;;;;;;3.88;1.15;;;12.30;99.90;;;;;;6235658;23;20148;-83
2023/03/25 12:18:35;;;;;;;1.00;0.55;;;12.20;99.90;;;;;;6237737;23;20140;-83
2023/03/25 12:21:21;;;;;;;5.57;0.70;;;11.80;99.90;;;;;;6242876;23;20518;-83
2023/03/25 12:24:10;;;;;;;1.45;0.80;;;11.90;99.90;;;;;;6239372;23;20128;-83
2023/03/25 12:26:53;;;;;;;2.05;0.90;;;12.10;99.90;;;;;;6240001;23;20159;-85
2023/03/25 12:29:19;;;;;;;1.33;0.75;;;12.00;99.90;;;;;;6239915;23;20163;-82
2023/03/25 12:32:16;;;;;;;1.53;0.60;;;11.80;99.90;;;;;;6241642;23;20524;-82
2023/03/25 12:35:07;;;;;;;1.85;0.50;;;11.70;99.90;;;;;;6245551;23;20230;-82
2023/03/25 12:37:35;;;;;;;2.70;0.98;;;11.60;99.90;;;;;;6244801;23;20159;-83
2023/03/25 12:40:38;;;;;;;1.73;0.75;;;11.70;99.90;;;;;;6246099;23;20233;-82
2023/03/25 12:43:13;;;;;;;1.05;0.70;;;12.30;99.90;;;;;;6243958;23;20133;-83
2023/03/25 12:46:01;;;;;;;1.55;0.70;;;12.70;99.90;;;;;;6238414;23;20206;-82
2023/03/25 12:48:46;;;;;;;2.00;0.75;;;12.60;99.90;;;;;;6240004;23;20152;-83
2023/03/25 12:51:20;;;;;;;2.53;0.65;;;12.40;99.90;;;;;;6244166;23;20172;-82
2023/03/25 12:54:20;;;;;;;1.58;0.40;;;12.40;99.90;;;;;;6243138;23;20135;-85
2023/03/25 12:57:12;;;;;;;1.05;0.65;;;12.10;99.90;;;;;;6238093;23;20137;-83
2023/03/25 12:59:55;;;;;;;1.30;0.75;;;12.00;99.90;;;;;;6235738;23;20255;-85
2023/03/25 13:02:39;;;;;;;11.35;1.15;;;12.00;99.90;;;;;;6227694;23;20148;-84
2023/03/25 13:05:17;;;;;;;9.18;0.80;;;12.00;99.90;;;;;;6246800;23;20208;-85
2023/03/25 13:07:48;;;;;;;0.80;0.50;;;11.90;99.90;;;;;;6250312;22;20137;-84
2023/03/25 13:10:23;;;;;;;0.80;0.60;;;11.90;99.90;;;;;;6241153;23;20255;-82
2023/03/25 13:12:52;;;;;;;0.98;0.50;;;11.50;99.90;;;;;;6238687;23;20142;-83
2023/03/25 13:15:33;;;;;;;2.33;1.77;;;11.80;99.90;;;;;;6242994;23;20571;-83
2023/03/25 13:18:32;;;;;;;1.92;0.95;;;11.90;99.90;;;;;;6241494;23;20132;-83